Time;durP1;ratioP1;P1;durP2;ratioP2;P2;SDS_P1;SDS_P2;PMS_P1;PMS_P2;Temp;Humidity;BMP_temperature;BMP_pressure;BME280_temperature;BME280_humidity;BME280_pressure;Samples;Min_cycle;Max_cycle;Signal;HPM_P1;HPM_P2
2022/09/26 00:02:14;;;;;;;9.40;8.50;;;;;;;;;;4991837;28;20448;-79
2022/09/26 00:04:41;;;;;;;8.70;7.90;;;;;;;;;;4992803;28;20455;-78
2022/09/26 00:07:08;;;;;;;9.60;8.60;;;;;;;;;;4994868;28;20570;-76
2022/09/26 00:09:35;;;;;;;9.03;8.13;;;;;;;;;;4996734;28;20470;-78
2022/09/26 00:12:03;;;;;;;10.93;8.60;;;;;;;;;;4993346;28;20445;-76
2022/09/26 00:14:30;;;;;;;8.83;7.77;;;;;;;;;;4995296;28;20526;-77
2022/09/26 00:16:57;;;;;;;13.33;8.40;;;;;;;;;;5004206;28;20483;-76
2022/09/26 00:19:26;;;;;;;7.90;7.20;;;;;;;;;;4997755;28;20476;-76
2022/09/26 00:21:53;;;;;;;9.10;8.17;;;;;;;;;;4991552;28;20444;-77
2022/09/26 00:24:20;;;;;;;8.67;7.80;;;;;;;;;;4993300;28;20455;-77
2022/09/26 00:26:47;;;;;;;10.17;7.80;;;;;;;;;;5000845;28;20510;-77
2022/09/26 00:29:14;;;;;;;9.63;8.50;;;;;;;;;;5014156;28;20472;-76
2022/09/26 00:31:43;;;;;;;11.47;8.10;;;;;;;;;;5013072;28;20448;-76
2022/09/26 00:34:10;;;;;;;12.97;8.27;;;;;;;;;;5013703;28;20437;-75
2022/09/26 00:36:39;;;;;;;8.57;6.97;;;;;;;;;;5007572;28;20932;-77
2022/09/26 00:39:07;;;;;;;9.07;8.23;;;;;;;;;;5005961;28;20495;-79
2022/09/26 00:41:34;;;;;;;7.60;6.80;;;;;;;;;;5006769;28;20444;-79
2022/09/26 00:44:01;;;;;;;8.07;7.27;;;;;;;;;;4991457;28;20456;-79
2022/09/26 00:46:31;;;;;;;8.17;7.33;;;;;;;;;;4990936;28;20452;-78
2022/09/26 00:49:03;;;;;;;9.30;7.20;;;;;;;;;;4992526;28;20495;-78
2022/09/26 00:51:30;;;;;;;11.07;7.90;;;;;;;;;;4993302;28;20448;-77
2022/09/26 00:53:59;;;;;;;8.57;7.77;;;;;;;;;;4995009;28;20448;-77
2022/09/26 00:56:27;;;;;;;8.93;8.03;;;;;;;;;;4991447;28;20459;-79
2022/09/26 00:58:56;;;;;;;8.73;7.93;;;;;;;;;;4992620;28;20490;-78
2022/09/26 01:01:23;;;;;;;8.53;7.77;;;;;;;;;;4995189;28;20467;-77
2022/09/26 01:03:51;;;;;;;8.83;7.77;;;;;;;;;;4991371;28;20460;-78
2022/09/26 01:06:18;;;;;;;8.40;7.60;;;;;;;;;;4993798;28;20459;-79
2022/09/26 01:08:50;;;;;;;8.53;7.37;;;;;;;;;;4993551;28;20472;-76
2022/09/26 01:11:19;;;;;;;10.83;7.20;;;;;;;;;;4991406;28;20436;-77
2022/09/26 01:13:46;;;;;;;7.67;7.07;;;;;;;;;;4990693;28;20448;-77
2022/09/26 01:16:14;;;;;;;9.30;8.30;;;;;;;;;;4985348;28;20520;-78
2022/09/26 01:18:41;;;;;;;8.40;7.60;;;;;;;;;;4993866;28;20465;-77
2022/09/26 01:21:13;;;;;;;8.30;7.50;;;;;;;;;;4995826;28;20498;-77
2022/09/26 01:23:51;;;;;;;12.13;7.63;;;;;;;;;;4994253;28;20451;-76
2022/09/26 01:26:27;;;;;;;8.27;7.47;;;;;;;;;;4996461;28;20818;-76
2022/09/26 01:29:03;;;;;;;9.10;8.30;;;;;;;;;;4995587;28;20574;-78
2022/09/26 01:31:35;;;;;;;8.90;7.40;;;;;;;;;;4996525;28;20444;-78
2022/09/26 01:34:06;;;;;;;9.00;8.20;;;;;;;;;;4995743;28;20509;-79
2022/09/26 01:36:43;;;;;;;9.17;8.47;;;;;;;;;;4995937;28;20435;-77
2022/09/26 01:39:14;;;;;;;10.30;9.17;;;;;;;;;;4995767;28;20470;-76
2022/09/26 01:41:48;;;;;;;9.60;8.60;;;;;;;;;;4995951;28;20436;-77
2022/09/26 01:44:22;;;;;;;9.77;8.87;;;;;;;;;;4995028;28;20467;-79
2022/09/26 01:46:52;;;;;;;11.50;10.30;;;;;;;;;;4995917;28;20502;-77
2022/09/26 01:49:21;;;;;;;11.27;9.83;;;;;;;;;;4995403;28;20453;-78
2022/09/26 01:51:51;;;;;;;8.93;8.03;;;;;;;;;;4994773;28;20435;-76
2022/09/26 01:54:19;;;;;;;8.90;8.10;;;;;;;;;;4995234;28;21010;-78
2022/09/26 01:56:47;;;;;;;10.00;8.80;;;;;;;;;;4995455;28;20490;-77
2022/09/26 01:59:17;;;;;;;8.90;8.10;;;;;;;;;;4995703;28;20460;-77
2022/09/26 02:01:45;;;;;;;13.30;9.00;;;;;;;;;;4997578;28;20955;-78
2022/09/26 02:04:15;;;;;;;9.03;8.17;;;;;;;;;;4995774;28;20440;-77
2022/09/26 02:06:46;;;;;;;9.90;9.00;;;;;;;;;;4996622;28;20440;-77
2022/09/26 02:09:15;;;;;;;9.73;8.73;;;;;;;;;;4996139;28;20570;-79
2022/09/26 02:11:44;;;;;;;9.90;9.07;;;;;;;;;;4995452;28;20445;-79
2022/09/26 02:14:13;;;;;;;10.13;9.07;;;;;;;;;;4993959;28;20475;-78
2022/09/26 02:16:42;;;;;;;10.87;9.77;;;;;;;;;;4994393;28;20514;-77
2022/09/26 02:19:14;;;;;;;9.60;8.70;;;;;;;;;;4997102;28;20470;-78
2022/09/26 02:21:44;;;;;;;11.00;9.47;;;;;;;;;;5000188;28;20448;-76
2022/09/26 02:24:11;;;;;;;10.07;9.07;;;;;;;;;;5000971;28;20482;-78
2022/09/26 02:26:38;;;;;;;9.53;8.60;;;;;;;;;;5001120;28;20459;-76
2022/09/26 02:29:06;;;;;;;9.80;8.73;;;;;;;;;;4999065;28;20492;-78
2022/09/26 02:31:35;;;;;;;9.30;8.47;;;;;;;;;;4997497;28;20467;-77
2022/09/26 02:34:03;;;;;;;9.60;8.80;;;;;;;;;;4996489;28;20955;-78
2022/09/26 02:36:32;;;;;;;9.27;8.47;;;;;;;;;;4995560;28;20464;-79
2022/09/26 02:39:00;;;;;;;9.97;8.93;;;;;;;;;;4996317;28;20492;-76
2022/09/26 02:41:32;;;;;;;9.40;8.60;;;;;;;;;;4997481;28;20499;-76
2022/09/26 02:44:15;;;;;;;9.63;8.57;;;;;;;;;;4996729;28;20479;-77
2022/09/26 02:46:58;;;;;;;9.80;8.80;;;;;;;;;;4997257;28;20444;-77
2022/09/26 02:49:33;;;;;;;10.40;8.40;;;;;;;;;;4999962;28;20488;-77
2022/09/26 02:52:07;;;;;;;8.83;8.03;;;;;;;;;;4995555;28;20502;-78
2022/09/26 02:54:41;;;;;;;8.33;7.63;;;;;;;;;;4997119;28;20924;-78
2022/09/26 02:57:12;;;;;;;8.23;7.50;;;;;;;;;;4996100;28;20510;-78
2022/09/26 02:59:46;;;;;;;8.50;7.70;;;;;;;;;;4995008;28;20472;-78
2022/09/26 03:02:15;;;;;;;10.17;8.97;;;;;;;;;;4994126;28;20826;-77
2022/09/26 03:04:45;;;;;;;8.70;7.90;;;;;;;;;;4993602;28;20479;-77
2022/09/26 03:07:14;;;;;;;8.70;7.83;;;;;;;;;;4995239;28;20460;-77
2022/09/26 03:09:43;;;;;;;9.13;8.20;;;;;;;;;;4996472;28;20678;-77
2022/09/26 03:12:10;;;;;;;8.33;7.63;;;;;;;;;;4993325;28;20526;-79
2022/09/26 03:14:39;;;;;;;9.23;7.87;;;;;;;;;;4994815;28;20448;-78
2022/09/26 03:17:07;;;;;;;9.07;8.23;;;;;;;;;;4995839;28;20460;-78
2022/09/26 03:19:38;;;;;;;7.50;6.97;;;;;;;;;;4999788;28;20465;-77
2022/09/26 03:22:05;;;;;;;8.90;7.80;;;;;;;;;;4997777;28;20448;-76
2022/09/26 03:24:32;;;;;;;8.33;7.47;;;;;;;;;;4993687;28;20471;-76
2022/09/26 03:27:03;;;;;;;7.30;6.70;;;;;;;;;;5007244;28;20452;-77
2022/09/26 03:29:31;;;;;;;8.40;7.50;;;;;;;;;;4999657;28;20496;-78
2022/09/26 03:31:59;;;;;;;8.13;7.43;;;;;;;;;;5002042;28;20567;-75
2022/09/26 03:34:27;;;;;;;9.53;7.17;;;;;;;;;;5004949;28;20460;-77
2022/09/26 03:36:54;;;;;;;10.00;8.30;;;;;;;;;;4998002;28;20527;-77
2022/09/26 03:39:21;;;;;;;8.53;7.83;;;;;;;;;;5003392;28;20464;-78
2022/09/26 03:41:49;;;;;;;8.80;8.00;;;;;;;;;;5009846;28;20428;-76
2022/09/26 03:44:25;;;;;;;8.40;7.60;;;;;;;;;;5016228;28;20460;-76
2022/09/26 03:46:52;;;;;;;8.03;7.27;;;;;;;;;;5001481;28;20928;-76
2022/09/26 03:49:20;;;;;;;9.10;8.20;;;;;;;;;;4998527;28;20500;-76
2022/09/26 03:51:47;;;;;;;8.10;7.40;;;;;;;;;;4996703;28;20459;-78
2022/09/26 03:54:14;;;;;;;7.60;7.00;;;;;;;;;;4993743;28;20444;-77
2022/09/26 03:56:41;;;;;;;9.07;8.27;;;;;;;;;;4993338;28;20453;-77
2022/09/26 03:59:08;;;;;;;7.77;7.17;;;;;;;;;;4992692;28;20465;-78
2022/09/26 04:01:37;;;;;;;8.73;8.03;;;;;;;;;;4993240;28;20940;-77
2022/09/26 04:04:04;;;;;;;8.50;7.20;;;;;;;;;;4992274;28;20441;-78
2022/09/26 04:06:31;;;;;;;9.07;8.37;;;;;;;;;;4993134;28;20448;-77
2022/09/26 04:08:58;;;;;;;9.00;8.20;;;;;;;;;;4993318;28;20515;-76
2022/09/26 04:11:25;;;;;;;6.90;6.40;;;;;;;;;;4993583;28;20444;-77
2022/09/26 04:13:53;;;;;;;12.63;11.63;;;;;;;;;;4992386;28;20452;-79
2022/09/26 04:16:21;;;;;;;10.07;9.17;;;;;;;;;;4992245;28;20444;-78
2022/09/26 04:18:49;;;;;;;7.70;7.07;;;;;;;;;;4991813;28;20476;-77
2022/09/26 04:21:17;;;;;;;8.17;7.20;;;;;;;;;;4989048;28;20460;-77
2022/09/26 04:23:45;;;;;;;7.13;6.20;;;;;;;;;;4994008;28;20468;-78
2022/09/26 04:26:13;;;;;;;7.00;6.47;;;;;;;;;;4992620;28;20807;-78
2022/09/26 04:28:40;;;;;;;6.87;6.27;;;;;;;;;;4991207;28;20598;-77
2022/09/26 04:31:09;;;;;;;8.80;6.77;;;;;;;;;;4995808;28;20870;-79
2022/09/26 04:33:37;;;;;;;9.73;8.57;;;;;;;;;;4998058;28;20455;-78
2022/09/26 04:36:07;;;;;;;7.27;6.57;;;;;;;;;;4991290;28;20999;-79
2022/09/26 04:38:34;;;;;;;6.90;6.30;;;;;;;;;;4991271;28;20479;-77
2022/09/26 04:41:03;;;;;;;7.40;5.93;;;;;;;;;;4990984;28;20463;-78
2022/09/26 04:43:30;;;;;;;6.83;6.17;;;;;;;;;;4990154;28;20815;-77
2022/09/26 04:45:57;;;;;;;6.60;5.50;;;;;;;;;;4991225;28;20510;-77
2022/09/26 04:48:24;;;;;;;6.90;6.20;;;;;;;;;;4991391;28;20487;-77
2022/09/26 04:50:51;;;;;;;7.33;5.30;;;;;;;;;;4991807;28;20783;-77
2022/09/26 04:53:20;;;;;;;5.83;5.37;;;;;;;;;;4990674;28;20521;-76
2022/09/26 04:55:48;;;;;;;8.10;5.67;;;;;;;;;;4990480;28;20461;-76
2022/09/26 04:58:15;;;;;;;6.60;5.83;;;;;;;;;;4985093;28;20549;-76
2022/09/26 05:00:44;;;;;;;8.00;7.20;;;;;;;;;;4987536;28;20447;-78
2022/09/26 05:03:12;;;;;;;7.80;6.97;;;;;;;;;;4994306;28;20877;-77
2022/09/26 05:05:39;;;;;;;6.93;6.43;;;;;;;;;;4995321;28;20444;-76
2022/09/26 05:08:06;;;;;;;8.17;7.10;;;;;;;;;;4992675;28;20449;-77
2022/09/26 05:10:37;;;;;;;7.50;6.80;;;;;;;;;;4986981;28;20472;-78
2022/09/26 05:13:11;;;;;;;7.90;6.27;;;;;;;;;;4995580;28;20452;-79
2022/09/26 05:15:40;;;;;;;5.90;5.40;;;;;;;;;;4995378;28;20506;-78
2022/09/26 05:18:10;;;;;;;6.27;5.67;;;;;;;;;;4996549;28;20768;-77
2022/09/26 05:20:38;;;;;;;6.70;6.20;;;;;;;;;;4997269;28;20483;-77
2022/09/26 05:26:18;;;;;;;6.60;5.90;;;;;;;;;;4996580;28;20524;-78
2022/09/26 05:26:20;;;;;;;6.63;5.90;;;;;;;;;;4998348;28;20503;-78
2022/09/26 05:28:47;;;;;;;6.50;5.90;;;;;;;;;;5013620;28;20479;-76
2022/09/26 05:31:15;;;;;;;7.90;7.10;;;;;;;;;;5011348;28;20795;-77
2022/09/26 05:33:44;;;;;;;7.07;6.40;;;;;;;;;;5004373;28;20456;-76
2022/09/26 05:36:11;;;;;;;8.83;7.93;;;;;;;;;;5011142;28;20452;-78
2022/09/26 05:38:38;;;;;;;7.90;7.10;;;;;;;;;;5015394;28;20893;-77
2022/09/26 05:41:06;;;;;;;6.93;6.33;;;;;;;;;;5007167;28;20449;-79
2022/09/26 05:43:38;;;;;;;6.80;6.23;;;;;;;;;;4997401;28;20480;-79
2022/09/26 05:46:06;;;;;;;7.97;6.60;;;;;;;;;;4995747;28;20511;-77
2022/09/26 05:48:34;;;;;;;7.13;6.33;;;;;;;;;;4994884;28;20488;-77
2022/09/26 05:51:05;;;;;;;8.23;7.53;;;;;;;;;;4994253;28;20951;-78
2022/09/26 05:53:32;;;;;;;7.87;6.67;;;;;;;;;;4994718;28;20639;-78
2022/09/26 05:55:59;;;;;;;7.20;6.50;;;;;;;;;;4995060;28;20459;-79
2022/09/26 05:58:31;;;;;;;7.37;6.20;;;;;;;;;;4996972;28;20979;-77
2022/09/26 06:01:01;;;;;;;9.97;6.97;;;;;;;;;;4995450;28;20808;-77
2022/09/26 06:03:32;;;;;;;6.63;5.83;;;;;;;;;;4994829;28;20810;-81
2022/09/26 06:06:01;;;;;;;5.80;5.17;;;;;;;;;;4995430;28;20951;-78
2022/09/26 06:08:28;;;;;;;6.50;5.90;;;;;;;;;;4995574;28;20464;-79
2022/09/26 06:10:58;;;;;;;6.30;5.80;;;;;;;;;;4996462;28;20452;-77
2022/09/26 06:13:25;;;;;;;6.53;6.00;;;;;;;;;;4994883;28;20476;-77
2022/09/26 06:15:55;;;;;;;7.60;6.20;;;;;;;;;;4995146;28;20817;-78
2022/09/26 06:18:22;;;;;;;6.80;6.20;;;;;;;;;;4996360;28;20460;-76
2022/09/26 06:20:49;;;;;;;8.23;5.70;;;;;;;;;;4995865;28;20454;-78
2022/09/26 06:23:17;;;;;;;6.23;5.60;;;;;;;;;;4995752;28;20831;-76
2022/09/26 06:25:44;;;;;;;5.83;5.33;;;;;;;;;;4996427;28;20467;-79
2022/09/26 06:28:11;;;;;;;5.80;5.20;;;;;;;;;;4999341;28;20455;-78
2022/09/26 06:30:38;;;;;;;6.20;5.30;;;;;;;;;;4996467;28;20491;-79
2022/09/26 06:33:07;;;;;;;4.93;4.43;;;;;;;;;;4996407;28;20455;-78
2022/09/26 06:35:34;;;;;;;5.90;4.77;;;;;;;;;;4999923;28;20456;-77
2022/09/26 06:38:01;;;;;;;5.77;4.70;;;;;;;;;;4996244;28;20454;-77
2022/09/26 06:40:28;;;;;;;5.97;5.37;;;;;;;;;;4997163;28;20975;-77
2022/09/26 06:42:55;;;;;;;5.47;5.00;;;;;;;;;;4998180;28;20445;-78
2022/09/26 06:45:22;;;;;;;7.00;5.50;;;;;;;;;;4996846;28;20943;-78
2022/09/26 06:47:50;;;;;;;5.67;5.00;;;;;;;;;;4995397;28;20453;-78
2022/09/26 06:50:18;;;;;;;9.17;4.70;;;;;;;;;;4980357;28;20485;-77
2022/09/26 06:52:46;;;;;;;4.90;4.37;;;;;;;;;;4992955;28;20547;-77
2022/09/26 06:55:13;;;;;;;5.80;4.23;;;;;;;;;;4994692;28;20949;-79
2022/09/26 06:57:41;;;;;;;6.10;5.50;;;;;;;;;;4993897;28;20488;-77
2022/09/26 07:00:09;;;;;;;5.50;4.67;;;;;;;;;;4993978;28;20461;-78
2022/09/26 07:02:36;;;;;;;4.90;4.20;;;;;;;;;;4993149;28;20499;-77
2022/09/26 07:05:04;;;;;;;5.00;4.70;;;;;;;;;;4993759;28;20456;-76
2022/09/26 07:07:33;;;;;;;4.53;4.10;;;;;;;;;;4993583;28;20452;-77
2022/09/26 07:10:00;;;;;;;6.03;4.43;;;;;;;;;;4993921;28;20491;-79
2022/09/26 07:12:27;;;;;;;11.57;6.97;;;;;;;;;;4995782;28;20448;-79
2022/09/26 07:14:54;;;;;;;5.50;4.90;;;;;;;;;;4995066;28;20507;-77
2022/09/26 07:17:21;;;;;;;4.93;4.47;;;;;;;;;;4995173;28;20531;-78
2022/09/26 07:19:51;;;;;;;4.67;4.20;;;;;;;;;;4993572;28;21062;-77
2022/09/26 07:22:18;;;;;;;4.67;4.27;;;;;;;;;;4994650;28;20800;-77
2022/09/26 07:24:49;;;;;;;4.70;4.30;;;;;;;;;;4994167;28;20498;-78
2022/09/26 07:27:16;;;;;;;5.33;4.93;;;;;;;;;;4997172;28;20458;-79
2022/09/26 07:29:46;;;;;;;6.00;3.93;;;;;;;;;;5002312;28;20972;-77
2022/09/26 07:32:13;;;;;;;3.87;3.53;;;;;;;;;;5002704;28;20448;-78
2022/09/26 07:34:41;;;;;;;4.17;3.87;;;;;;;;;;5003916;28;20466;-78
2022/09/26 07:37:08;;;;;;;4.63;3.60;;;;;;;;;;4999840;28;20463;-79
2022/09/26 07:39:35;;;;;;;4.00;3.70;;;;;;;;;;4996572;28;20843;-78
2022/09/26 07:42:04;;;;;;;4.00;3.70;;;;;;;;;;4995115;28;20460;-79
2022/09/26 07:44:31;;;;;;;3.63;3.33;;;;;;;;;;4992238;28;20483;-79
2022/09/26 07:52:28;;;;;;;5.33;3.77;;;;;;;;;;4993944;28;20793;-77
2022/09/26 07:54:55;;;;;;;4.40;3.47;;;;;;;;;;4993270;28;20460;-79
2022/09/26 07:57:23;;;;;;;3.90;3.60;;;;;;;;;;4993838;28;21023;-78
2022/09/26 07:59:53;;;;;;;3.30;3.10;;;;;;;;;;4993360;28;20467;-77
2022/09/26 08:02:23;;;;;;;4.07;3.70;;;;;;;;;;4992426;28;20503;-77
2022/09/26 08:04:53;;;;;;;3.10;2.90;;;;;;;;;;4991311;28;20459;-77
2022/09/26 08:07:20;;;;;;;4.07;3.77;;;;;;;;;;4989391;28;20460;-77
2022/09/26 08:09:47;;;;;;;5.33;3.13;;;;;;;;;;4991771;28;20499;-76
2022/09/26 08:12:14;;;;;;;4.27;3.87;;;;;;;;;;4992058;28;20489;-76
2022/09/26 08:14:42;;;;;;;3.97;3.17;;;;;;;;;;4992190;28;20932;-77
2022/09/26 08:17:11;;;;;;;3.00;2.80;;;;;;;;;;4993142;28;20459;-77
2022/09/26 08:19:38;;;;;;;3.53;3.33;;;;;;;;;;4993637;28;20484;-78
2022/09/26 08:22:07;;;;;;;4.13;3.73;;;;;;;;;;4992930;28;20444;-77
2022/09/26 08:24:34;;;;;;;3.97;3.57;;;;;;;;;;4993352;28;20452;-77
2022/09/26 08:27:01;;;;;;;3.80;3.50;;;;;;;;;;4992417;28;20951;-77
2022/09/26 08:29:31;;;;;;;4.57;3.23;;;;;;;;;;4991735;28;21015;-76
2022/09/26 08:32:01;;;;;;;4.33;3.30;;;;;;;;;;4992421;28;20447;-77
2022/09/26 08:34:28;;;;;;;3.70;3.20;;;;;;;;;;4992103;28;20479;-78
2022/09/26 08:36:55;;;;;;;3.80;3.23;;;;;;;;;;4991770;28;20459;-77
2022/09/26 08:39:22;;;;;;;4.73;3.10;;;;;;;;;;4992274;28;20523;-78
2022/09/26 08:41:56;;;;;;;3.87;3.40;;;;;;;;;;4992522;28;20452;-76
2022/09/26 08:44:30;;;;;;;4.77;3.30;;;;;;;;;;4991476;28;20900;-77
2022/09/26 08:47:01;;;;;;;3.53;3.30;;;;;;;;;;4992108;28;20439;-78
2022/09/26 08:49:47;;;;;;;4.27;3.73;;;;;;;;;;4992316;28;20492;-78
2022/09/26 08:52:27;;;;;;;6.67;3.70;;;;;;;;;;4992376;28;20452;-78
2022/09/26 08:54:56;;;;;;;3.17;3.07;;;;;;;;;;4991319;28;20483;-77
2022/09/26 08:57:29;;;;;;;3.70;3.40;;;;;;;;;;4991864;28;20558;-77
2022/09/26 08:59:56;;;;;;;3.40;3.10;;;;;;;;;;4992402;28;20946;-78
2022/09/26 09:02:29;;;;;;;4.13;3.77;;;;;;;;;;4992242;28;20448;-78
2022/09/26 09:04:59;;;;;;;4.53;3.23;;;;;;;;;;4991192;28;20444;-78
2022/09/26 09:07:26;;;;;;;3.77;3.07;;;;;;;;;;4991841;28;20457;-76
2022/09/26 09:09:55;;;;;;;6.90;2.93;;;;;;;;;;4989550;28;20502;-77
2022/09/26 09:12:26;;;;;;;3.23;2.90;;;;;;;;;;4992746;28;20833;-77
2022/09/26 09:15:03;;;;;;;3.97;2.60;;;;;;;;;;4991599;28;20499;-77
2022/09/26 09:17:35;;;;;;;2.50;2.30;;;;;;;;;;4992836;28;20829;-78
2022/09/26 09:20:06;;;;;;;2.60;2.30;;;;;;;;;;4995901;28;20472;-76
2022/09/26 09:22:50;;;;;;;4.80;2.40;;;;;;;;;;4991400;28;20452;-77
2022/09/26 09:25:21;;;;;;;2.40;2.20;;;;;;;;;;4989715;28;20880;-77
2022/09/26 09:27:56;;;;;;;5.97;2.17;;;;;;;;;;4992596;28;20453;-77
2022/09/26 09:30:24;;;;;;;1.77;1.67;;;;;;;;;;4992355;28;21013;-78
2022/09/26 09:32:55;;;;;;;2.90;2.70;;;;;;;;;;4992313;28;20463;-77
2022/09/26 09:35:33;;;;;;;3.70;2.40;;;;;;;;;;4993073;28;20443;-79
2022/09/26 09:38:01;;;;;;;2.87;2.67;;;;;;;;;;4992682;28;20783;-77
2022/09/26 09:40:32;;;;;;;2.53;2.33;;;;;;;;;;4994285;28;20464;-77
2022/09/26 09:43:03;;;;;;;2.70;2.50;;;;;;;;;;4998680;28;20435;-78
2022/09/26 09:45:31;;;;;;;2.60;2.40;;;;;;;;;;4997156;28;20753;-77
2022/09/26 09:47:59;;;;;;;2.37;2.07;;;;;;;;;;4995111;28;20448;-77
2022/09/26 09:50:30;;;;;;;2.53;2.33;;;;;;;;;;4995271;28;20486;-78
2022/09/26 09:53:05;;;;;;;3.63;3.00;;;;;;;;;;4994409;28;20448;-77
2022/09/26 09:55:39;;;;;;;3.77;2.40;;;;;;;;;;4994226;28;20466;-76
2022/09/26 09:58:16;;;;;;;2.13;2.03;;;;;;;;;;4994021;28;20444;-76
2022/09/26 10:00:46;;;;;;;2.50;1.70;;;;;;;;;;4994753;28;20502;-78
2022/09/26 10:03:19;;;;;;;3.00;2.30;;;;;;;;;;4994119;28;20491;-78
2022/09/26 10:05:47;;;;;;;2.00;1.90;;;;;;;;;;4994968;28;20452;-77
2022/09/26 10:08:16;;;;;;;2.47;2.27;;;;;;;;;;4996095;28;20464;-78
2022/09/26 10:10:47;;;;;;;2.57;2.37;;;;;;;;;;5007711;28;20487;-78
2022/09/26 10:13:14;;;;;;;3.60;2.10;;;;;;;;;;5016755;28;20460;-78
2022/09/26 10:15:43;;;;;;;3.00;2.10;;;;;;;;;;5018748;28;20432;-77
2022/09/26 10:18:17;;;;;;;2.37;2.20;;;;;;;;;;5018973;28;20455;-76
2022/09/26 10:20:51;;;;;;;4.50;2.53;;;;;;;;;;5004861;28;20919;-79
2022/09/26 10:23:22;;;;;;;2.57;2.07;;;;;;;;;;4994894;28;20440;-78
2022/09/26 10:25:49;;;;;;;3.50;2.00;;;;;;;;;;4994769;28;20452;-76
2022/09/26 10:28:25;;;;;;;2.00;1.67;;;;;;;;;;4995238;28;20447;-77
2022/09/26 10:30:55;;;;;;;1.83;1.73;;;;;;;;;;4994300;28;20490;-77
2022/09/26 10:33:24;;;;;;;2.40;1.60;;;;;;;;;;4993437;28;20854;-78
2022/09/26 10:36:00;;;;;;;3.90;1.97;;;;;;;;;;4994322;28;20448;-77
2022/09/26 10:38:27;;;;;;;2.83;1.90;;;;;;;;;;4993749;28;20476;-77
2022/09/26 10:40:56;;;;;;;2.43;2.20;;;;;;;;;;4993765;28;20486;-78
2022/09/26 10:43:32;;;;;;;2.97;2.53;;;;;;;;;;4994703;28;20445;-78
2022/09/26 10:46:04;;;;;;;2.77;2.50;;;;;;;;;;4996100;28;20436;-79
2022/09/26 10:48:46;;;;;;;2.30;2.10;;;;;;;;;;4996441;28;20467;-78
2022/09/26 10:51:23;;;;;;;2.03;1.93;;;;;;;;;;4995937;28;21011;-79
2022/09/26 10:53:52;;;;;;;2.50;1.73;;;;;;;;;;4996037;28;21011;-77
2022/09/26 10:56:25;;;;;;;1.30;1.20;;;;;;;;;;4996786;28;20671;-78
2022/09/26 10:58:56;;;;;;;1.50;1.40;;;;;;;;;;4995620;28;20483;-78
2022/09/26 11:01:25;;;;;;;4.00;2.10;;;;;;;;;;4994193;28;20464;-77
2022/09/26 11:03:54;;;;;;;1.63;1.53;;;;;;;;;;4993163;28;20544;-79
2022/09/26 11:06:23;;;;;;;2.30;1.80;;;;;;;;;;4995016;28;20444;-79
2022/09/26 11:08:52;;;;;;;1.90;1.40;;;;;;;;;;4993616;28;20880;-78
2022/09/26 11:11:21;;;;;;;1.67;1.40;;;;;;;;;;4993498;28;20550;-79
2022/09/26 11:13:48;;;;;;;1.70;1.60;;;;;;;;;;4986766;28;20449;-78
2022/09/26 11:16:19;;;;;;;3.00;1.50;;;;;;;;;;4973040;28;20451;-79
2022/09/26 11:18:48;;;;;;;1.20;1.10;;;;;;;;;;4973896;28;20669;-79
2022/09/26 11:21:18;;;;;;;1.47;1.37;;;;;;;;;;4974293;28;20461;-78
2022/09/26 11:23:50;;;;;;;1.43;1.33;;;;;;;;;;4974079;28;20980;-78
2022/09/26 11:26:19;;;;;;;1.93;1.73;;;;;;;;;;4973517;28;20484;-80
2022/09/26 11:28:50;;;;;;;1.27;1.17;;;;;;;;;;4973777;28;20556;-79
2022/09/26 11:31:22;;;;;;;2.67;1.60;;;;;;;;;;4975287;28;20481;-79
2022/09/26 11:33:49;;;;;;;1.63;1.30;;;;;;;;;;4973307;28;20477;-79
2022/09/26 11:36:24;;;;;;;2.00;1.90;;;;;;;;;;4972874;28;20437;-79
2022/09/26 11:38:56;;;;;;;1.77;1.40;;;;;;;;;;4973215;28;20468;-80
2022/09/26 11:41:36;;;;;;;2.83;1.80;;;;;;;;;;4973639;28;20449;-79
2022/09/26 11:44:08;;;;;;;1.47;1.37;;;;;;;;;;4974454;28;20445;-78
2022/09/26 11:46:40;;;;;;;1.43;1.33;;;;;;;;;;4973648;28;20456;-78
2022/09/26 11:49:26;;;;;;;2.00;1.20;;;;;;;;;;4973067;28;20472;-78
2022/09/26 11:52:01;;;;;;;1.87;1.77;;;;;;;;;;4972461;28;21047;-79
2022/09/26 11:54:35;;;;;;;2.43;1.70;;;;;;;;;;4972138;28;20448;-78
2022/09/26 11:57:09;;;;;;;3.63;1.90;;;;;;;;;;4973079;28;20555;-79
2022/09/26 12:00:05;;;;;;;1.60;1.50;;;;;;;;;;4973459;28;20537;-79
2022/09/26 12:02:45;;;;;;;2.30;1.60;;;;;;;;;;4949895;28;20449;-78
2022/09/26 12:05:23;;;;;;;2.77;1.80;;;;;;;;;;4973345;28;20456;-78
2022/09/26 12:07:57;;;;;;;1.27;1.17;;;;;;;;;;4972409;28;20929;-78
2022/09/26 12:10:36;;;;;;;1.50;1.10;;;;;;;;;;4972549;28;20488;-79
2022/09/26 12:13:13;;;;;;;1.17;0.80;;;;;;;;;;4991567;28;20449;-79
2022/09/26 12:15:45;;;;;;;1.40;1.30;;;;;;;;;;4992895;28;20467;-78
2022/09/26 12:18:16;;;;;;;1.43;1.33;;;;;;;;;;4992116;28;20444;-79
2022/09/26 12:20:48;;;;;;;2.00;1.30;;;;;;;;;;4992173;28;20486;-79
2022/09/26 12:23:20;;;;;;;1.53;1.40;;;;;;;;;;4992510;28;20452;-78
2022/09/26 12:25:56;;;;;;;1.60;1.50;;;;;;;;;;4994253;28;20448;-79
2022/09/26 12:28:30;;;;;;;5.43;1.67;;;;;;;;;;4990501;28;20786;-79
2022/09/26 12:31:03;;;;;;;1.60;1.30;;;;;;;;;;4990155;28;21015;-79
2022/09/26 12:33:37;;;;;;;1.53;1.43;;;;;;;;;;4989951;28;20530;-79
2022/09/26 12:36:10;;;;;;;1.63;1.50;;;;;;;;;;4990458;28;20983;-79
2022/09/26 12:38:53;;;;;;;2.73;1.70;;;;;;;;;;4997694;28;20475;-78
2022/09/26 12:41:36;;;;;;;1.83;1.50;;;;;;;;;;4994369;28;20460;-79
2022/09/26 12:44:12;;;;;;;1.20;1.20;;;;;;;;;;4966395;28;20517;-78
2022/09/26 12:46:54;;;;;;;1.07;1.07;;;;;;;;;;5012823;28;20459;-78
2022/09/26 12:49:33;;;;;;;8.50;2.50;;;;;;;;;;5005948;28;20462;-78
2022/09/26 12:52:03;;;;;;;1.50;1.23;;;;;;;;;;5014447;28;20475;-78
2022/09/26 12:54:35;;;;;;;1.30;1.13;;;;;;;;;;5014152;28;20424;-79
2022/09/26 12:57:05;;;;;;;1.43;1.33;;;;;;;;;;5014700;28;20436;-78
2022/09/26 12:59:39;;;;;;;1.47;1.37;;;;;;;;;;5014702;28;20463;-77
2022/09/26 13:02:16;;;;;;;1.50;1.40;;;;;;;;;;5008277;28;20448;-78
2022/09/26 13:04:53;;;;;;;1.60;1.40;;;;;;;;;;4992220;28;20809;-79
2022/09/26 13:07:27;;;;;;;3.23;1.10;;;;;;;;;;4992133;28;20476;-78
2022/09/26 13:10:01;;;;;;;1.27;1.17;;;;;;;;;;4991781;28;20471;-78
2022/09/26 13:12:37;;;;;;;1.20;1.10;;;;;;;;;;4991233;28;20995;-79
2022/09/26 13:15:14;;;;;;;0.87;0.80;;;;;;;;;;4991592;28;20452;-78
2022/09/26 13:17:44;;;;;;;1.73;1.00;;;;;;;;;;4994949;28;21059;-79
2022/09/26 13:20:14;;;;;;;1.00;0.90;;;;;;;;;;4994384;28;20560;-79
2022/09/26 13:22:43;;;;;;;1.27;0.83;;;;;;;;;;4993174;28;20444;-78
2022/09/26 13:25:16;;;;;;;0.90;0.90;;;;;;;;;;4993483;28;20440;-80
2022/09/26 13:27:47;;;;;;;1.43;0.80;;;;;;;;;;4994018;28;20456;-78
2022/09/26 13:30:17;;;;;;;1.07;0.97;;;;;;;;;;4993885;28;21050;-79
2022/09/26 13:32:48;;;;;;;0.80;0.80;;;;;;;;;;4992859;28;21003;-78
2022/09/26 13:35:19;;;;;;;1.60;0.80;;;;;;;;;;4993918;28;20494;-79
2022/09/26 13:37:52;;;;;;;0.80;0.80;;;;;;;;;;4993400;28;20451;-79
2022/09/26 13:40:23;;;;;;;0.90;0.90;;;;;;;;;;4992684;28;21022;-79
2022/09/26 13:42:52;;;;;;;2.67;0.80;;;;;;;;;;4992850;28;20440;-79
2022/09/26 13:45:25;;;;;;;0.80;0.80;;;;;;;;;;4993744;28;20487;-79
2022/09/26 13:47:54;;;;;;;0.80;0.80;;;;;;;;;;4994498;28;20940;-78
2022/09/26 13:50:24;;;;;;;1.23;0.80;;;;;;;;;;4993719;28;20977;-79
2022/09/26 13:52:59;;;;;;;1.10;0.70;;;;;;;;;;4993853;28;20955;-79
2022/09/26 13:55:28;;;;;;;0.70;0.70;;;;;;;;;;4993621;28;21018;-80
2022/09/26 13:58:05;;;;;;;0.80;0.60;;;;;;;;;;4993370;28;20436;-79
2022/09/26 14:00:52;;;;;;;1.20;1.10;;;;;;;;;;4994249;28;20483;-79
2022/09/26 14:03:40;;;;;;;0.97;0.90;;;;;;;;;;4997405;28;20935;-80
2022/09/26 14:06:17;;;;;;;1.40;0.97;;;;;;;;;;4997420;28;20461;-79
2022/09/26 14:11:50;;;;;;;1.37;0.83;;;;;;;;;;4984130;28;20482;-79
2022/09/26 14:14:38;;;;;;;2.10;1.00;;;;;;;;;;4994185;28;20445;-79
2022/09/26 14:17:36;;;;;;;1.37;1.10;;;;;;;;;;4994690;28;20512;-78
2022/09/26 14:20:04;;;;;;;1.37;1.03;;;;;;;;;;4994224;28;20479;-78
2022/09/26 14:22:33;;;;;;;1.70;1.10;;;;;;;;;;4995760;28;20448;-78
2022/09/26 14:25:01;;;;;;;1.50;1.00;;;;;;;;;;4994905;28;20539;-79
2022/09/26 14:27:41;;;;;;;1.60;1.50;;;;;;;;;;4994157;28;20463;-79
2022/09/26 14:30:23;;;;;;;1.10;1.10;;;;;;;;;;4995011;28;20464;-79
2022/09/26 14:32:53;;;;;;;1.20;0.93;;;;;;;;;;4994465;28;20492;-78
2022/09/26 14:35:21;;;;;;;1.43;1.33;;;;;;;;;;4995713;28;20452;-79
2022/09/26 14:37:49;;;;;;;1.10;1.10;;;;;;;;;;5002325;28;20444;-78
2022/09/26 14:40:19;;;;;;;1.23;1.23;;;;;;;;;;5016048;28;21084;-78
2022/09/26 14:42:51;;;;;;;1.80;1.37;;;;;;;;;;5015517;28;20440;-78
2022/09/26 14:45:20;;;;;;;1.20;1.10;;;;;;;;;;5016132;28;20448;-79
2022/09/26 14:47:49;;;;;;;2.20;1.43;;;;;;;;;;5007928;28;20824;-78
2022/09/26 14:50:19;;;;;;;1.10;1.10;;;;;;;;;;4994893;28;20883;-78
2022/09/26 14:52:50;;;;;;;1.20;1.20;;;;;;;;;;4993661;28;20477;-79
2022/09/26 14:55:18;;;;;;;2.27;1.00;;;;;;;;;;4993316;28;20460;-77
2022/09/26 14:57:47;;;;;;;1.23;1.20;;;;;;;;;;4993962;28;20451;-79
2022/09/26 15:00:32;;;;;;;3.40;1.40;;;;;;;;;;4993856;28;20472;-79
2022/09/26 15:03:00;;;;;;;4.53;1.53;;;;;;;;;;4992955;28;20532;-78
2022/09/26 15:05:28;;;;;;;1.43;1.20;;;;;;;;;;4994710;28;20445;-79
2022/09/26 15:07:59;;;;;;;2.27;1.33;;;;;;;;;;4993871;28;20462;-78
2022/09/26 15:10:28;;;;;;;1.47;1.37;;;;;;;;;;4993625;28;20472;-79
2022/09/26 15:12:58;;;;;;;4.10;1.20;;;;;;;;;;4993274;28;20498;-79